Time;durP1;ratioP1;P1;durP2;ratioP2;P2;SDS_P1;SDS_P2;PMS_P1;PMS_P2;Temp;Humidity;BMP_temperature;BMP_pressure;BME280_temperature;BME280_humidity;BME280_pressure;Samples;Min_cycle;Max_cycle;Signal;HPM_P1;HPM_P2
2023/06/07 00:01:45;;;;;;;;;;;;;;;13.21;100.00;97674.78;18568234;32;19948;-55
2023/06/07 00:11:47;;;;;;;;;;;;;;;13.16;100.00;97674.84;18553826;32;20341;-55
2023/06/07 00:21:53;;;;;;;;;;;;;;;13.08;100.00;97666.50;18567298;32;20294;-55
2023/06/07 00:31:56;;;;;;;;;;;;;;;12.99;100.00;97671.75;18566756;32;19956;-53
2023/06/07 00:41:58;;;;;;;;;;;;;;;12.91;100.00;97675.91;18565672;32;19977;-53
2023/06/07 00:52:00;;;;;;;;;;;;;;;12.83;100.00;97679.22;18564779;32;20294;-54
2023/06/07 01:02:03;;;;;;;;;;;;;;;12.73;100.00;97680.12;18550272;32;19964;-56
2023/06/07 01:12:06;;;;;;;;;;;;;;;12.65;100.00;97686.97;18564298;32;19952;-54
2023/06/07 01:22:10;;;;;;;;;;;;;;;12.57;100.00;97687.56;18563606;32;19972;-55
2023/06/07 01:32:12;;;;;;;;;;;;;;;12.47;100.00;97683.03;18562906;32;19977;-56
2023/06/07 01:42:16;;;;;;;;;;;;;;;12.40;100.00;97677.09;18561963;32;19993;-56
2023/06/07 01:52:18;;;;;;;;;;;;;;;12.33;100.00;97696.41;18548030;32;19945;-56
2023/06/07 02:02:27;;;;;;;;;;;;;;;12.27;100.00;97707.56;18547359;32;19956;-54
2023/06/07 02:12:30;;;;;;;;;;;;;;;12.18;100.00;97691.87;18561399;32;19982;-55
2023/06/07 02:22:32;;;;;;;;;;;;;;;12.09;100.00;97701.69;18560841;32;19993;-55
2023/06/07 02:32:35;;;;;;;;;;;;;;;12.00;100.00;97703.34;18546399;32;19979;-55
2023/06/07 02:42:37;;;;;;;;;;;;;;;11.94;100.00;97707.97;18559773;32;19960;-55
2023/06/07 02:52:41;;;;;;;;;;;;;;;11.87;100.00;97712.88;18532863;32;19957;-56
2023/06/07 03:02:43;;;;;;;;;;;;;;;11.80;100.00;97713.16;18559524;32;20360;-55
2023/06/07 03:12:46;;;;;;;;;;;;;;;11.73;100.00;97725.38;18559600;32;20351;-55
2023/06/07 03:22:49;;;;;;;;;;;;;;;11.62;100.00;97716.47;18570621;32;20242;-55
2023/06/07 03:32:52;;;;;;;;;;;;;;;11.56;100.00;97709.44;18570236;31;19970;-56
2023/06/07 03:42:54;;;;;;;;;;;;;;;11.41;100.00;97705.69;18569342;32;19979;-56
2023/06/07 03:52:56;;;;;;;;;;;;;;;11.36;100.00;97719.25;18555074;32;19956;-56
2023/06/07 04:02:59;;;;;;;;;;;;;;;11.38;100.00;97716.28;18568779;32;19985;-56
2023/06/07 04:13:02;;;;;;;;;;;;;;;11.56;100.00;97717.56;18554007;32;19952;-57
2023/06/07 04:23:05;;;;;;;;;;;;;;;11.82;100.00;97704.75;18567179;31;20005;-56
2023/06/07 04:33:09;;;;;;;;;;;;;;;12.07;100.00;97711.97;18565916;32;19983;-56
2023/06/07 04:43:12;;;;;;;;;;;;;;;12.41;100.00;97705.03;18566020;32;19960;-56
2023/06/07 04:53:19;;;;;;;;;;;;;;;12.69;100.00;97703.47;18566103;32;19982;-57
2023/06/07 05:03:21;;;;;;;;;;;;;;;12.94;100.00;97712.50;18565239;32;19964;-57
2023/06/07 05:13:24;;;;;;;;;;;;;;;13.22;100.00;97716.31;18564380;32;19971;-57
2023/06/07 05:23:27;;;;;;;;;;;;;;;13.53;100.00;97732.34;18563563;32;20234;-57
2023/06/07 05:33:30;;;;;;;;;;;;;;;13.92;100.00;97730.56;18563663;32;19980;-56
2023/06/07 05:43:33;;;;;;;;;;;;;;;14.29;100.00;97735.25;18561968;32;20242;-57
2023/06/07 05:53:35;;;;;;;;;;;;;;;14.75;100.00;97725.66;18548094;32;19953;-58
2023/06/07 06:03:38;;;;;;;;;;;;;;;15.17;100.00;97721.16;18534256;32;19952;-58
2023/06/07 06:13:42;;;;;;;;;;;;;;;15.62;100.00;97725.25;18560716;32;20347;-57
2023/06/07 06:23:47;;;;;;;;;;;;;;;16.23;100.00;97740.44;18561132;32;19957;-57
2023/06/07 06:33:57;;;;;;;;;;;;;;;16.83;100.00;97741.28;18546068;31;20009;-57
2023/06/07 06:44:02;;;;;;;;;;;;;;;17.43;100.00;97736.56;18560433;32;19992;-57
2023/06/07 06:54:11;;;;;;;;;;;;;;;17.92;100.00;97748.41;18567642;32;20032;-58
2023/06/07 07:04:14;;;;;;;;;;;;;;;18.38;100.00;97756.44;18571859;31;20261;-57
2023/06/07 07:14:18;;;;;;;;;;;;;;;18.78;100.00;97745.34;18571524;32;19981;-58
2023/06/07 07:24:22;;;;;;;;;;;;;;;19.15;96.49;97756.78;18570812;32;20020;-58
2023/06/07 07:34:27;;;;;;;;;;;;;;;19.55;92.51;97756.53;18556189;31;19963;-57
2023/06/07 07:44:29;;;;;;;;;;;;;;;19.99;82.31;97761.91;18555336;32;19989;-58
2023/06/07 07:54:32;;;;;;;;;;;;;;;20.42;79.80;97760.06;18568865;32;19975;-58
2023/06/07 08:04:35;;;;;;;;;;;;;;;20.77;79.74;97765.34;18568224;31;20031;-57
2023/06/07 08:14:39;;;;;;;;;;;;;;;21.20;74.59;97768.87;18567985;32;19952;-58
2023/06/07 08:24:46;;;;;;;;;;;;;;;21.59;73.92;97762.03;18567410;32;19966;-57
2023/06/07 08:34:50;;;;;;;;;;;;;;;21.95;69.93;97751.41;18566565;32;19965;-57
2023/06/07 08:44:54;;;;;;;;;;;;;;;22.31;68.03;97763.56;18566235;32;19956;-58
2023/06/07 08:55:03;;;;;;;;;;;;;;;22.58;62.40;97759.31;18565234;31;20028;-58
2023/06/07 09:05:07;;;;;;;;;;;;;;;22.85;55.34;97768.00;18565009;32;20268;-58
2023/06/07 09:15:15;;;;;;;;;;;;;;;23.26;56.65;97771.56;18563628;32;20363;-58
2023/06/07 09:25:20;;;;;;;;;;;;;;;23.69;56.30;97763.62;18563799;32;19960;-58
2023/06/07 09:35:25;;;;;;;;;;;;;;;23.87;52.77;97758.56;18562733;32;20363;-58
2023/06/07 09:45:30;;;;;;;;;;;;;;;24.05;55.00;97756.28;18562614;32;19963;-58
2023/06/07 09:55:34;;;;;;;;;;;;;;;24.48;50.43;97748.19;18548002;32;20264;-58
2023/06/07 10:05:38;;;;;;;;;;;;;;;24.90;54.38;97743.97;18547941;32;19991;-58
2023/06/07 10:15:42;;;;;;;;;;;;;;;25.20;47.41;97745.00;18561191;32;20008;-58
2023/06/07 10:25:53;;;;;;;;;;;;;;;25.50;48.71;97738.06;18565010;32;19987;-58
2023/06/07 10:35:57;;;;;;;;;;;;;;;25.65;42.71;97731.59;18573820;31;19952;-58
2023/06/07 10:46:24;;;;;;;;;;;;;;;25.95;47.80;97727.34;18573139;31;20040;-58
2023/06/07 10:56:30;;;;;;;;;;;;;;;26.60;45.38;97720.81;18558774;32;19995;-59
2023/06/07 11:06:53;;;;;;;;;;;;;;;26.69;46.18;97715.78;18557326;32;19975;-58
2023/06/07 11:16:57;;;;;;;;;;;;;;;27.08;45.29;97716.66;18556796;32;20348;-58
2023/06/07 11:27:01;;;;;;;;;;;;;;;27.36;44.61;97696.78;18570596;32;20032;-59
2023/06/07 11:37:08;;;;;;;;;;;;;;;27.48;44.11;97690.97;18569378;31;20012;-59
2023/06/07 11:47:13;;;;;;;;;;;;;;;27.61;43.34;97680.34;18569682;32;19964;-59
2023/06/07 11:57:16;;;;;;;;;;;;;;;28.11;43.61;97674.44;18568983;32;19992;-59
2023/06/07 12:07:21;;;;;;;;;;;;;;;28.63;38.67;97666.00;18568687;32;19996;-59
2023/06/07 12:17:24;;;;;;;;;;;;;;;28.84;40.22;97658.94;18567789;32;19989;-59
2023/06/07 12:27:29;;;;;;;;;;;;;;;29.08;36.51;97647.06;18567079;32;19967;-59
2023/06/07 12:37:35;;;;;;;;;;;;;;;29.28;36.90;97643.16;18552007;32;20381;-59
2023/06/07 12:47:38;;;;;;;;;;;;;;;29.77;38.92;97630.44;18565199;32;19957;-59
2023/06/07 12:57:42;;;;;;;;;;;;;;;30.07;39.17;97609.72;18538145;32;19945;-59
2023/06/07 13:07:45;;;;;;;;;;;;;;;30.41;34.68;97609.22;18564685;32;19983;-59
2023/06/07 13:17:48;;;;;;;;;;;;;;;30.63;32.46;97593.19;18564022;32;19945;-59
2023/06/07 13:27:53;;;;;;;;;;;;;;;30.93;31.48;97584.25;18563386;31;19969;-59
2023/06/07 13:37:56;;;;;;;;;;;;;;;31.15;35.58;97586.94;18549350;31;20281;-59
2023/06/07 13:47:59;;;;;;;;;;;;;;;31.28;33.49;97583.66;18562825;32;19957;-59
2023/06/07 13:58:03;;;;;;;;;;;;;;;31.89;33.96;97575.53;18547820;32;19960;-59
2023/06/07 14:08:06;;;;;;;;;;;;;;;32.20;31.67;97564.41;18561557;32;19957;-59
2023/06/07 14:18:10;;;;;;;;;;;;;;;32.26;31.79;97571.13;18561495;31;20302;-58
2023/06/07 14:28:13;;;;;;;;;;;;;;;32.99;28.92;97562.59;18560975;32;19952;-59
2023/06/07 14:38:19;;;;;;;;;;;;;;;32.38;25.43;97546.63;18560078;31;19953;-59
2023/06/07 14:48:23;;;;;;;;;;;;;;;32.64;28.96;97531.06;18560415;32;19961;-58
2023/06/07 14:58:27;;;;;;;;;;;;;;;32.89;26.55;97543.94;18560251;32;20042;-56
2023/06/07 15:08:33;;;;;;;;;;;;;;;31.22;27.07;97531.00;18559621;32;20306;-56
2023/06/07 15:18:36;;;;;;;;;;;;;;;29.62;29.56;97522.97;18556324;32;20351;-56
2023/06/07 15:28:39;;;;;;;;;;;;;;;28.99;29.82;97510.25;18571259;32;19991;-55
2023/06/07 15:38:42;;;;;;;;;;;;;;;28.20;31.96;97504.50;18555712;32;19968;-55
2023/06/07 15:48:50;;;;;;;;;;;;;;;27.70;30.50;97497.50;18569904;32;19975;-55
2023/06/07 15:58:54;;;;;;;;;;;;;;;27.37;31.08;97499.28;18569333;32;19983;-54
2023/06/07 16:09:02;;;;;;;;;;;;;;;27.07;31.32;97488.34;18554433;31;20008;-54
2023/06/07 16:19:09;;;;;;;;;;;;;;;26.79;32.87;97486.09;18541386;32;19965;-54
2023/06/07 16:29:12;;;;;;;;;;;;;;;26.51;32.21;97488.19;18567851;32;19971;-55
2023/06/07 16:39:15;;;;;;;;;;;;;;;26.62;32.88;97481.97;18566478;32;19952;-55
2023/06/07 16:49:19;;;;;;;;;;;;;;;26.77;31.58;97477.38;18566185;32;19985;-55
2023/06/07 16:59:24;;;;;;;;;;;;;;;26.23;32.95;97474.84;18565345;31;19997;-56
2023/06/07 17:09:29;;;;;;;;;;;;;;;25.80;32.42;97482.59;18551299;32;19944;-56
2023/06/07 17:19:33;;;;;;;;;;;;;;;25.48;34.38;97478.22;18550040;32;20315;-55
2023/06/07 17:29:38;;;;;;;;;;;;;;;25.60;33.15;97479.97;18548991;32;19945;-55
2023/06/07 17:39:42;;;;;;;;;;;;;;;25.41;33.66;97482.84;18562437;32;19957;-54
2023/06/07 17:49:46;;;;;;;;;;;;;;;24.86;35.96;97479.22;18548192;32;19960;-54
2023/06/07 17:59:50;;;;;;;;;;;;;;;24.93;33.46;97486.84;18562179;32;19971;-55
2023/06/07 18:09:54;;;;;;;;;;;;;;;27.29;32.20;97492.06;18561704;32;20021;-55
2023/06/07 18:19:57;;;;;;;;;;;;;;;28.68;30.77;97500.69;18561071;32;20012;-55
2023/06/07 18:30:01;;;;;;;;;;;;;;;25.76;34.20;97498.38;18561085;32;20000;-54
2023/06/07 18:40:07;;;;;;;;;;;;;;;24.22;37.46;97498.19;18546443;32;19986;-54
2023/06/07 18:50:10;;;;;;;;;;;;;;;23.29;39.83;97491.44;18568190;31;20276;-54
2023/06/07 19:00:15;;;;;;;;;;;;;;;22.62;43.08;97487.41;18572787;32;20365;-57
2023/06/07 19:10:20;;;;;;;;;;;;;;;21.81;48.87;97515.06;18558389;32;19952;-55
2023/06/07 19:20:28;;;;;;;;;;;;;;;20.98;60.23;97507.78;18571913;32;19993;-56
2023/06/07 19:30:38;;;;;;;;;;;;;;;20.24;66.68;97520.50;18570835;32;19948;-53
2023/06/07 19:40:43;;;;;;;;;;;;;;;19.55;72.52;97514.41;18570321;32;19956;-55
2023/06/07 19:50:48;;;;;;;;;;;;;;;18.93;78.15;97511.22;18555429;32;20425;-55
2023/06/07 20:00:57;;;;;;;;;;;;;;;18.41;86.42;97518.41;18555544;32;19960;-56
2023/06/07 20:11:03;;;;;;;;;;;;;;;17.98;93.21;97523.94;18554347;32;19949;-55
2023/06/07 20:21:06;;;;;;;;;;;;;;;17.60;99.22;97528.88;18553990;32;19984;-54
2023/06/07 20:31:10;;;;;;;;;;;;;;;17.24;100.00;97538.13;18567646;32;19956;-55
2023/06/07 20:41:15;;;;;;;;;;;;;;;16.93;100.00;97538.97;18552455;32;20337;-56
2023/06/07 20:51:18;;;;;;;;;;;;;;;16.65;100.00;97532.88;18566018;32;19985;-55
2023/06/07 21:01:22;;;;;;;;;;;;;;;16.43;100.00;97539.97;18565483;32;19987;-55
2023/06/07 21:11:26;;;;;;;;;;;;;;;16.25;100.00;97530.03;18564089;32;20031;-55
2023/06/07 21:21:30;;;;;;;;;;;;;;;16.10;100.00;97533.94;18564154;32;20333;-55
2023/06/07 21:31:33;;;;;;;;;;;;;;;15.97;100.00;97538.34;18549077;31;19967;-56
2023/06/07 21:41:37;;;;;;;;;;;;;;;15.78;100.00;97535.75;18548505;32;19960;-55
2023/06/07 21:51:41;;;;;;;;;;;;;;;15.63;100.00;97538.81;18548235;32;19987;-56
2023/06/07 22:01:44;;;;;;;;;;;;;;;15.47;100.00;97539.16;18562038;32;19963;-53
2023/06/07 22:11:51;;;;;;;;;;;;;;;15.32;100.00;97543.00;18561479;32;19948;-53
2023/06/07 22:21:55;;;;;;;;;;;;;;;15.15;100.00;97546.34;18561262;32;20012;-55
2023/06/07 22:31:59;;;;;;;;;;;;;;;15.00;100.00;97547.44;18560898;32;19953;-54
2023/06/07 22:42:02;;;;;;;;;;;;;;;14.86;100.00;97554.81;18546173;32;20005;-54
2023/06/07 22:52:05;;;;;;;;;;;;;;;14.72;100.00;97549.34;18546028;32;20053;-55
2023/06/07 23:02:07;;;;;;;;;;;;;;;14.57;100.00;97540.31;18560014;32;19969;-55
2023/06/07 23:12:12;;;;;;;;;;;;;;;14.45;100.00;97541.91;18559766;32;19967;-55
2023/06/07 23:22:16;;;;;;;;;;;;;;;14.30;100.00;97551.12;18559006;32;19952;-55
2023/06/07 23:32:19;;;;;;;;;;;;;;;14.19;100.00;97534.97;18561660;32;19986;-55
2023/06/07 23:42:22;;;;;;;;;;;;;;;14.11;100.00;97526.69;18556120;32;19987;-55
2023/06/07 23:52:25;;;;;;;;;;;;;;;13.98;100.00;97528.25;18569936;32;19953;-55
